Time;durP1;ratioP1;P1;durP2;ratioP2;P2;SDS_P1;SDS_P2;PMS_P1;PMS_P2;Temp;Humidity;BMP_temperature;BMP_pressure;BME280_temperature;BME280_humidity;BME280_pressure;Samples;Min_cycle;Max_cycle;Signal;HPM_P1;HPM_P2
2021/04/15 00:00:30;;;;;;;3.30;2.08;;;;;;;1.66;67.47;101611.66;5010580;28;20049;-78
2021/04/15 00:02:56;;;;;;;4.55;2.40;;;;;;;1.59;69.39;101615.44;5011363;28;20077;-76
2021/04/15 00:05:26;;;;;;;3.88;2.70;;;;;;;1.49;69.27;101625.44;5003326;28;20046;-74
2021/04/15 00:07:52;;;;;;;5.18;2.72;;;;;;;1.45;70.70;101624.72;5011046;28;20124;-73
2021/04/15 00:10:18;;;;;;;3.35;2.05;;;;;;;1.47;70.70;101614.22;5010988;28;20564;-76
2021/04/15 00:12:43;;;;;;;3.40;1.90;;;;;;;1.50;70.45;101611.47;5010931;28;20037;-78
2021/04/15 00:15:11;;;;;;;3.35;2.28;;;;;;;1.54;69.50;101620.00;5010455;28;20038;-74
2021/04/15 00:17:36;;;;;;;3.25;1.92;;;;;;;1.53;69.83;101621.78;4978421;28;20030;-77
2021/04/15 00:20:04;;;;;;;2.42;1.60;;;;;;;1.56;67.81;101616.44;5009820;28;20034;-75
2021/04/15 00:22:29;;;;;;;3.30;2.10;;;;;;;1.63;66.90;101614.41;5009431;28;20548;-75
2021/04/15 00:24:54;;;;;;;4.03;2.00;;;;;;;1.62;68.53;101608.34;4992744;28;20042;-78
2021/04/15 00:27:20;;;;;;;2.58;1.60;;;;;;;1.64;66.74;101611.72;5000127;28;20041;-77
2021/04/15 00:29:46;;;;;;;3.70;1.80;;;;;;;1.63;67.18;101609.19;5010297;28;20026;-75
2021/04/15 00:32:11;;;;;;;2.13;1.33;;;;;;;1.59;68.09;101603.25;5009102;28;20041;-76
2021/04/15 00:34:36;;;;;;;3.03;1.63;;;;;;;1.63;68.00;101601.38;4991906;28;20569;-74
2021/04/15 00:37:02;;;;;;;2.88;1.80;;;;;;;1.58;67.76;101601.56;5009869;28;20040;-75
2021/04/15 00:39:27;;;;;;;2.70;1.65;;;;;;;1.51;70.39;101594.94;5002659;28;20036;-76
2021/04/15 00:41:52;;;;;;;4.05;2.50;;;;;;;1.56;67.78;101595.56;5008960;28;20553;-75
2021/04/15 00:44:17;;;;;;;4.90;2.65;;;;;;;1.54;67.29;101594.78;4991786;28;20037;-75
2021/04/15 00:46:51;;;;;;;3.08;2.00;;;;;;;1.47;68.07;101585.53;5009114;28;20030;-78
2021/04/15 00:49:23;;;;;;;2.90;2.10;;;;;;;1.52;67.31;101596.59;4998770;28;20053;-76
2021/04/15 00:51:53;;;;;;;4.22;2.40;;;;;;;1.50;68.31;101588.00;4992346;28;20023;-77
2021/04/15 00:54:30;;;;;;;4.78;2.40;;;;;;;1.51;67.81;101591.47;5008347;28;20037;-74
2021/04/15 00:56:56;;;;;;;4.03;2.20;;;;;;;1.45;68.96;101589.97;5009799;28;20041;-76
2021/04/15 00:59:22;;;;;;;5.38;2.65;;;;;;;1.55;69.19;101595.63;5009601;28;20503;-75
2021/04/15 01:01:48;;;;;;;4.28;2.20;;;;;;;1.47;68.31;101594.19;5010176;28;20532;-75
2021/04/15 01:04:14;;;;;;;3.63;2.40;;;;;;;1.51;68.66;101588.88;5009098;28;20080;-75
2021/04/15 01:06:39;;;;;;;5.45;2.92;;;;;;;1.59;68.11;101589.38;5009023;28;20061;-76
2021/04/15 01:09:04;;;;;;;3.00;2.03;;;;;;;1.50;68.37;101588.00;5001919;28;20120;-74
2021/04/15 01:11:47;;;;;;;4.68;2.33;;;;;;;1.55;69.03;101585.19;5009474;28;20522;-77
2021/04/15 01:14:30;;;;;;;3.08;2.00;;;;;;;1.48;68.64;101590.69;5008756;28;20034;-78
2021/04/15 01:17:01;;;;;;;3.20;1.95;;;;;;;1.42;68.97;101588.34;5004398;28;20027;-78
2021/04/15 01:19:42;;;;;;;3.30;2.30;;;;;;;1.46;69.04;101584.69;4991039;28;20069;-76
2021/04/15 01:22:33;;;;;;;2.65;1.80;;;;;;;1.48;68.71;101584.66;5008488;28;20038;-75
2021/04/15 01:25:15;;;;;;;;;;;;;;;1.44;70.00;101588.28;5009689;28;20064;-74
2021/04/15 01:27:49;;;;;;;3.20;1.90;;;;;;;1.41;69.70;101591.88;5002082;28;19920;-75
2021/04/15 01:30:26;;;;;;;3.92;2.55;;;;;;;1.52;68.27;101588.78;4983686;28;20073;-77
2021/04/15 01:33:10;;;;;;;3.40;2.30;;;;;;;1.49;69.77;101592.38;5004970;28;20044;-76
2021/04/15 01:35:35;;;;;;;4.55;2.13;;;;;;;1.34;70.54;101590.47;5005479;28;20030;-75
2021/04/15 01:38:09;;;;;;;4.20;2.20;;;;;;;1.21;71.28;101586.66;5010798;28;20564;-75
2021/04/15 01:40:46;;;;;;;3.67;2.33;;;;;;;0.98;71.19;101583.28;4999613;28;20994;-77
2021/04/15 01:43:30;;;;;;;3.78;2.20;;;;;;;0.84;72.90;101580.41;5009936;28;20050;-76
2021/04/15 01:45:57;;;;;;;3.95;2.20;;;;;;;0.71;71.90;101582.66;5008892;28;20033;-76
2021/04/15 01:48:30;;;;;;;4.32;2.38;;;;;;;0.57;72.08;101579.75;5009012;28;20041;-74
2021/04/15 01:51:04;;;;;;;4.20;2.00;;;;;;;0.54;74.16;101580.72;5009051;28;20124;-75
2021/04/15 01:53:36;;;;;;;3.35;1.90;;;;;;;0.56;74.83;101580.69;5010069;28;20034;-74
2021/04/15 01:56:09;;;;;;;4.55;1.98;;;;;;;0.58;74.46;101584.06;5008727;28;20129;-74
2021/04/15 01:58:48;;;;;;;4.78;2.10;;;;;;;0.52;75.81;101582.53;5002542;28;20044;-74
2021/04/15 02:01:17;;;;;;;5.07;2.10;;;;;;;0.49;74.70;101574.03;5005418;28;20061;-77
2021/04/15 02:03:45;;;;;;;3.20;2.10;;;;;;;0.40;74.00;101583.03;4991770;28;20125;-75
2021/04/15 02:06:16;;;;;;;3.10;2.00;;;;;;;0.37;76.52;101588.38;5008807;28;20042;-75
2021/04/15 02:08:45;;;;;;;3.03;2.00;;;;;;;0.31;75.90;101583.41;5003410;28;20590;-74
2021/04/15 02:11:29;;;;;;;3.28;2.35;;;;;;;0.31;75.62;101586.88;5008189;28;20030;-78
2021/04/15 02:13:59;;;;;;;3.25;2.00;;;;;;;0.29;75.69;101587.84;5008884;28;20456;-74
2021/04/15 02:16:27;;;;;;;4.00;2.10;;;;;;;0.30;75.69;101589.53;4998891;28;20092;-75
2021/04/15 02:19:03;;;;;;;4.22;1.98;;;;;;;0.28;74.66;101579.16;5011185;28;20511;-77
2021/04/15 02:21:35;;;;;;;3.60;2.28;;;;;;;0.23;75.75;101588.06;5012876;28;20042;-74
2021/04/15 02:24:09;;;;;;;3.22;2.15;;;;;;;0.05;75.50;101584.41;5009203;28;20414;-75
2021/04/15 02:26:39;;;;;;;5.07;2.92;;;;;;;-0.09;75.85;101588.38;5011284;28;20154;-74
2021/04/15 02:29:12;;;;;;;3.63;2.30;;;;;;;-0.11;74.70;101594.53;5004083;28;20065;-74
2021/04/15 02:31:40;;;;;;;4.18;2.13;;;;;;;-0.12;74.98;101590.22;5004902;28;20040;-74
2021/04/15 02:34:08;;;;;;;3.65;1.83;;;;;;;-0.03;77.88;101590.72;5009510;28;20038;-75
2021/04/15 02:36:45;;;;;;;3.22;2.00;;;;;;;0.02;74.04;101595.75;5012279;28;20446;-76
2021/04/15 02:39:21;;;;;;;2.70;2.08;;;;;;;0.03;75.57;101591.44;5008873;28;20287;-78
2021/04/15 02:41:50;;;;;;;5.88;3.20;;;;;;;0.18;74.27;101594.28;5012361;28;20549;-74
2021/04/15 02:44:23;;;;;;;5.07;3.20;;;;;;;0.40;74.80;101590.84;5009670;28;20129;-75
2021/04/15 02:46:54;;;;;;;6.13;3.13;;;;;;;0.56;74.04;101599.75;5006751;28;20129;-74
2021/04/15 02:49:24;;;;;;;6.45;3.33;;;;;;;0.66;73.62;101594.19;4993403;28;20092;-74
2021/04/15 02:51:57;;;;;;;4.13;2.60;;;;;;;0.71;73.78;101600.88;5000132;28;20104;-78
2021/04/15 02:54:29;;;;;;;3.67;2.30;;;;;;;0.68;75.70;101595.81;5011255;28;20038;-76
2021/04/15 02:56:59;;;;;;;3.38;1.92;;;;;;;0.67;75.18;101601.94;5011662;28;20458;-74
2021/04/15 02:59:40;;;;;;;2.42;1.90;;;;;;;0.68;75.85;101595.81;5012481;28;20026;-75
2021/04/15 03:02:13;;;;;;;2.78;1.90;;;;;;;0.73;75.33;101593.00;5008832;28;20038;-75
2021/04/15 03:04:42;;;;;;;3.72;2.30;;;;;;;0.68;75.10;101590.59;5004513;28;20022;-74
2021/04/15 03:07:09;;;;;;;3.45;2.45;;;;;;;0.69;73.72;101588.84;5011679;28;20321;-75
2021/04/15 03:09:36;;;;;;;3.53;2.58;;;;;;;0.53;75.04;101597.28;4994041;28;20065;-75
2021/04/15 03:12:11;;;;;;;5.43;2.58;;;;;;;0.35;73.99;101592.78;5011167;28;20539;-78
2021/04/15 03:15:15;;;;;;;3.97;2.60;;;;;;;0.28;74.80;101599.97;5003646;28;20084;-77
2021/04/15 03:17:44;;;;;;;4.05;2.70;;;;;;;0.18;77.01;101596.03;4994279;28;20044;-80
2021/04/15 03:20:16;;;;;;;3.15;2.15;;;;;;;0.15;77.02;101599.59;4993700;28;20044;-78
2021/04/15 03:22:51;;;;;;;3.85;2.42;;;;;;;0.07;76.27;101606.88;5009284;28;20034;-74
2021/04/15 03:25:17;;;;;;;4.50;2.90;;;;;;;-0.11;76.68;101604.94;5011247;28;20041;-74
2021/04/15 03:28:05;;;;;;;2.83;2.20;;;;;;;-0.02;76.02;101607.22;5007187;28;20038;-74
2021/04/15 03:30:53;;;;;;;4.65;2.50;;;;;;;-0.11;76.74;101610.16;4987211;28;20038;-77
2021/04/15 03:33:26;;;;;;;3.80;2.33;;;;;;;-0.13;77.37;101604.16;5007690;28;20616;-74
2021/04/15 03:36:42;;;;;;;4.82;2.40;;;;;;;-0.03;76.31;101610.69;5011383;28;20030;-76
2021/04/15 03:39:12;;;;;;;3.85;2.20;;;;;;;-0.03;78.09;101603.72;4926488;29;20044;-74
2021/04/15 03:41:47;;;;;;;4.78;2.65;;;;;;;-0.17;77.20;101611.19;4996102;28;20530;-76
2021/04/15 03:44:15;;;;;;;3.42;2.35;;;;;;;-0.23;77.22;101609.69;4990158;28;20042;-74
2021/04/15 03:46:52;;;;;;;3.53;2.50;;;;;;;-0.29;77.58;101607.28;4993303;28;20419;-76
2021/04/15 03:49:29;;;;;;;3.92;2.50;;;;;;;-0.31;78.56;101610.84;4990622;28;20046;-75
2021/04/15 03:52:00;;;;;;;4.15;2.63;;;;;;;-0.35;78.54;101606.69;5006366;28;20113;-74
2021/04/15 03:54:29;;;;;;;;;;;;;;;-0.24;77.45;101607.13;5010827;28;20038;-74
2021/04/15 03:56:59;;;;;;;6.10;3.85;;;;;;;-0.05;76.59;101602.09;4993071;28;19913;-74
2021/04/15 03:59:43;;;;;;;5.15;3.28;;;;;;;0.02;76.88;101600.97;4993275;28;20056;-76
2021/04/15 04:02:16;;;;;;;6.18;3.90;;;;;;;0.14;76.40;101603.13;5008022;28;20414;-76
2021/04/15 04:04:52;;;;;;;6.90;4.13;;;;;;;0.26;76.24;101606.16;4997519;28;20046;-74
2021/04/15 04:07:52;;;;;;;7.15;4.25;;;;;;;0.35;75.67;101603.19;5010156;28;20026;-77
2021/04/15 04:10:25;;;;;;;6.68;4.70;;;;;;;0.42;75.72;101608.09;5007827;28;20511;-74
2021/04/15 04:12:56;;;;;;;7.38;4.78;;;;;;;0.51;75.77;101606.88;4992442;28;20128;-79
2021/04/15 04:15:30;;;;;;;7.28;4.60;;;;;;;0.53;75.61;101605.06;4991426;28;20113;-75
2021/04/15 04:18:14;;;;;;;7.20;4.63;;;;;;;0.60;75.31;101610.91;4997226;28;20069;-76
2021/04/15 04:20:41;;;;;;;8.45;5.22;;;;;;;0.64;75.61;101609.84;5010128;28;20182;-75
2021/04/15 04:23:34;;;;;;;9.20;5.28;;;;;;;0.66;75.31;101607.19;5002152;28;20101;-77
2021/04/15 04:26:09;;;;;;;5.55;4.25;;;;;;;0.58;75.42;101605.75;4987854;28;20053;-78
2021/04/15 04:28:48;;;;;;;6.93;4.55;;;;;;;0.55;75.64;101611.06;4996861;28;20056;-78
2021/04/15 04:31:24;;;;;;;6.60;4.47;;;;;;;0.57;75.38;101609.25;5010018;28;20125;-76
2021/04/15 04:33:53;;;;;;;7.78;4.40;;;;;;;0.50;75.79;101618.22;5010197;28;20022;-78
2021/04/15 04:36:22;;;;;;;6.25;4.07;;;;;;;0.49;75.78;101616.50;5006622;28;20042;-77
2021/04/15 04:38:47;;;;;;;8.95;4.20;;;;;;;0.49;76.03;101619.09;5003851;28;20040;-75
2021/04/15 04:41:29;;;;;;;6.18;3.90;;;;;;;0.45;76.16;101619.28;5009413;28;20398;-75
2021/04/15 04:44:00;;;;;;;5.10;3.28;;;;;;;0.43;75.79;101611.56;4992868;28;20042;-74
2021/04/15 04:46:35;;;;;;;6.70;4.72;;;;;;;0.40;76.08;101615.09;4990982;28;20046;-77
2021/04/15 04:49:05;;;;;;;7.07;4.60;;;;;;;0.31;76.84;101627.63;5006936;28;20232;-74
2021/04/15 04:52:09;;;;;;;7.57;3.87;;;;;;;0.25;76.55;101626.13;5007511;28;20057;-75
2021/04/15 04:54:38;;;;;;;5.43;3.80;;;;;;;0.21;76.87;101637.53;4997637;28;20426;-74
2021/04/15 04:57:14;;;;;;;5.68;3.90;;;;;;;0.16;76.97;101634.25;5010498;28;20034;-75
2021/04/15 04:59:47;;;;;;;6.25;4.10;;;;;;;0.12;78.23;101638.75;4993393;28;20422;-74
2021/04/15 05:02:15;;;;;;;7.15;4.50;;;;;;;0.02;77.90;101641.72;5011381;28;20049;-76
2021/04/15 05:04:43;;;;;;;4.85;3.28;;;;;;;0.06;76.91;101643.31;5001567;28;20065;-75
2021/04/15 05:07:18;;;;;;;5.10;3.78;;;;;;;0.01;77.26;101640.03;5011210;28;20045;-78
2021/04/15 05:09:45;;;;;;;6.28;3.70;;;;;;;0.04;76.69;101645.97;5011154;28;20046;-76
2021/04/15 05:12:22;;;;;;;5.95;3.90;;;;;;;0.02;77.34;101649.53;5009785;28;20030;-75
2021/04/15 05:14:51;;;;;;;5.63;3.55;;;;;;;0.12;78.47;101643.94;5009672;28;20057;-75
2021/04/15 05:17:21;;;;;;;6.50;4.70;;;;;;;0.25;77.02;101641.72;5009619;28;20030;-75
2021/04/15 05:19:47;;;;;;;6.30;3.63;;;;;;;0.37;76.22;101648.22;5009323;28;20048;-76
2021/04/15 05:22:42;;;;;;;6.05;3.85;;;;;;;0.49;77.09;101647.72;5004265;28;20030;-74
2021/04/15 05:25:25;;;;;;;6.90;4.13;;;;;;;0.62;76.23;101646.38;4985218;28;20069;-74
2021/04/15 05:27:51;;;;;;;6.65;4.05;;;;;;;0.77;75.22;101651.88;5009549;28;20411;-76
2021/04/15 05:30:37;;;;;;;7.28;4.00;;;;;;;1.11;75.79;101659.16;5009242;28;20042;-74
2021/04/15 05:33:05;;;;;;;7.80;5.13;;;;;;;1.38;73.62;101654.56;5003874;28;20058;-75
2021/04/15 05:35:42;;;;;;;5.60;4.28;;;;;;;1.50;74.00;101647.97;4991942;28;20132;-76
2021/04/15 05:38:11;;;;;;;6.53;4.22;;;;;;;1.72;73.32;101662.66;5009087;28;20038;-73
2021/04/15 05:40:37;;;;;;;7.00;5.00;;;;;;;2.32;71.68;101658.25;5008745;28;20041;-74
2021/04/15 05:43:17;;;;;;;6.40;4.63;;;;;;;2.46;72.09;101658.47;5002203;28;20530;-77
2021/04/15 05:45:45;;;;;;;5.18;3.78;;;;;;;2.88;68.96;101659.09;5002215;28;20042;-79
2021/04/15 05:48:14;;;;;;;6.00;4.13;;;;;;;3.28;67.89;101662.34;5001246;28;20042;-74
2021/04/15 05:50:50;;;;;;;5.38;3.47;;;;;;;3.66;66.53;101662.19;4991581;28;20372;-75
2021/04/15 05:53:20;;;;;;;4.90;3.45;;;;;;;4.15;66.33;101655.22;5012133;28;20041;-77
2021/04/15 05:56:25;;;;;;;6.10;3.47;;;;;;;4.55;64.25;101660.03;5013215;28;20042;-75
2021/04/15 05:58:54;;;;;;;4.28;3.20;;;;;;;5.06;66.28;101664.13;4957194;28;20069;-76
2021/04/15 06:01:48;;;;;;;3.92;2.40;;;;;;;5.49;59.93;101658.16;5003969;28;20049;-77
2021/04/15 06:04:44;;;;;;;5.60;4.20;;;;;;;5.49;59.77;101663.41;5008809;28;20538;-77
2021/04/15 06:07:22;;;;;;;6.25;4.40;;;;;;;5.53;59.24;101664.91;5005127;28;20043;-74
2021/04/15 06:09:49;;;;;;;6.05;3.60;;;;;;;6.08;57.92;101664.22;4989619;28;20125;-73
2021/04/15 06:12:27;;;;;;;4.72;3.30;;;;;;;6.20;61.37;101673.13;5012186;28;20030;-76
2021/04/15 06:15:14;;;;;;;4.75;3.40;;;;;;;6.84;61.08;101673.47;5013234;28;20036;-77
2021/04/15 06:17:50;;;;;;;4.63;3.28;;;;;;;7.25;61.33;101663.78;5009829;28;20150;-75
2021/04/15 06:20:23;;;;;;;4.72;3.17;;;;;;;7.63;58.83;101663.84;4994523;28;20116;-78
2021/04/15 06:22:53;;;;;;;6.03;3.60;;;;;;;7.74;54.09;101671.00;5011781;28;20041;-74
2021/04/15 06:25:23;;;;;;;4.72;3.25;;;;;;;8.29;58.31;101669.75;5011878;28;20026;-75
2021/04/15 06:27:49;;;;;;;6.45;4.03;;;;;;;7.86;51.87;101671.00;5012476;28;20044;-74
2021/04/15 06:30:21;;;;;;;4.72;3.58;;;;;;;8.23;54.14;101675.47;4992958;28;20117;-74
2021/04/15 06:33:07;;;;;;;5.55;4.07;;;;;;;8.27;53.00;101675.16;5004531;28;20022;-75
2021/04/15 06:35:35;;;;;;;5.00;3.78;;;;;;;8.42;53.53;101677.69;4994903;28;20330;-75
2021/04/15 06:38:18;;;;;;;4.72;3.20;;;;;;;8.88;51.24;101677.00;5012268;28;20057;-77
2021/04/15 06:41:10;;;;;;;4.03;3.13;;;;;;;9.37;50.52;101670.72;5007222;28;20061;-76
2021/04/15 06:43:50;;;;;;;4.13;3.40;;;;;;;9.53;51.02;101673.00;5010674;28;20491;-74
2021/04/15 06:46:53;;;;;;;6.28;4.07;;;;;;;9.64;49.08;101673.03;4989026;28;20085;-75
2021/04/15 06:49:41;;;;;;;6.50;3.78;;;;;;;9.64;49.72;101672.22;5008949;28;20042;-76
2021/04/15 06:52:09;;;;;;;4.80;3.38;;;;;;;9.79;50.83;101671.00;5006978;28;20026;-75
2021/04/15 06:55:16;;;;;;;5.72;3.70;;;;;;;9.81;47.35;101663.81;5004654;28;20034;-75
2021/04/15 06:57:51;;;;;;;5.85;3.40;;;;;;;9.93;49.81;101670.78;5004696;28;20038;-76
2021/04/15 07:00:40;;;;;;;5.68;3.90;;;;;;;10.40;49.43;101666.22;4988261;28;20080;-76
2021/04/15 07:03:12;;;;;;;4.90;3.40;;;;;;;10.46;48.72;101664.06;5000768;28;20510;-75
2021/04/15 07:05:57;;;;;;;;;;;;;;;10.95;48.84;101665.38;5009939;28;20038;-75
2021/04/15 07:08:41;;;;;;;6.25;4.35;;;;;;;11.26;47.44;101674.25;5010108;28;19924;-76
2021/04/15 07:11:30;;;;;;;4.90;3.50;;;;;;;10.71;46.51;101674.34;5011898;28;20030;-76
2021/04/15 07:14:13;;;;;;;6.00;4.00;;;;;;;10.35;45.04;101672.88;5011936;28;20045;-75
2021/04/15 07:16:57;;;;;;;4.90;3.33;;;;;;;10.21;47.02;101669.47;5007615;28;20038;-76
2021/04/15 07:19:37;;;;;;;5.93;4.55;;;;;;;10.94;46.54;101671.63;5011755;28;20030;-74
2021/04/15 07:22:22;;;;;;;4.95;3.50;;;;;;;10.75;46.97;101669.63;5010601;28;20049;-75
2021/04/15 07:24:54;;;;;;;3.67;2.80;;;;;;;11.19;46.09;101667.78;5009716;28;20618;-75
2021/04/15 07:27:57;;;;;;;5.03;3.88;;;;;;;12.00;43.88;101675.97;5005109;28;20065;-76
2021/04/15 07:30:40;;;;;;;5.43;3.63;;;;;;;12.02;44.92;101674.03;4990890;28;20026;-75
2021/04/15 07:33:34;;;;;;;6.28;3.72;;;;;;;12.68;45.46;101676.16;5007804;28;20057;-77
2021/04/15 07:36:26;;;;;;;5.63;4.32;;;;;;;12.48;42.68;101670.00;5010916;28;20046;-75
2021/04/15 07:38:57;;;;;;;5.32;4.07;;;;;;;12.23;44.47;101674.00;5001552;28;20026;-77
2021/04/15 07:41:52;;;;;;;6.40;3.47;;;;;;;12.42;42.60;101673.19;4993325;28;20040;-75
2021/04/15 07:44:17;;;;;;;6.40;4.50;;;;;;;12.07;43.76;101675.31;4993075;28;20042;-75
2021/04/15 07:46:48;;;;;;;6.33;4.37;;;;;;;11.89;43.42;101675.09;5011045;28;20506;-75
2021/04/15 07:49:41;;;;;;;5.53;3.90;;;;;;;12.97;42.10;101676.22;5010540;28;20689;-74
2021/04/15 07:52:25;;;;;;;4.32;3.03;;;;;;;13.23;41.76;101680.94;5010849;28;20030;-75
2021/04/15 07:55:08;;;;;;;4.70;3.53;;;;;;;13.93;40.50;101674.41;5010779;28;20442;-75
2021/04/15 07:58:06;;;;;;;5.13;4.20;;;;;;;13.37;39.63;101680.56;5010039;28;20617;-75
2021/04/15 08:01:09;;;;;;;7.32;3.15;;;;;;;13.45;39.34;101671.91;4984845;28;20042;-75
2021/04/15 08:04:10;;;;;;;4.40;3.20;;;;;;;13.68;38.18;101677.69;5009769;28;20048;-75
2021/04/15 08:06:51;;;;;;;5.55;4.18;;;;;;;13.06;40.75;101672.75;5009897;28;20057;-77
2021/04/15 08:09:41;;;;;;;4.55;3.20;;;;;;;12.92;40.94;101670.50;4999746;28;20069;-75
2021/04/15 08:12:18;;;;;;;4.10;3.03;;;;;;;13.44;40.15;101670.19;4999973;28;20041;-75
2021/04/15 08:15:21;;;;;;;4.43;3.35;;;;;;;14.33;38.24;101675.09;5003223;28;20085;-75
2021/04/15 08:18:06;;;;;;;4.95;2.95;;;;;;;14.50;36.55;101676.13;5008895;28;20037;-76
2021/04/15 08:20:53;;;;;;;4.75;3.38;;;;;;;14.23;36.38;101678.63;5010407;28;20050;-76
2021/04/15 08:23:40;;;;;;;3.90;2.40;;;;;;;14.23;36.01;101664.50;5006509;28;20495;-75
2021/04/15 08:26:46;;;;;;;4.80;3.15;;;;;;;13.85;35.95;101665.47;5009639;28;20045;-75
2021/04/15 08:29:23;;;;;;;4.88;3.45;;;;;;;13.93;36.62;101670.91;4980441;28;20116;-76
2021/04/15 08:31:54;;;;;;;4.47;2.67;;;;;;;14.30;37.15;101668.25;4996354;28;20030;-75
2021/04/15 08:34:24;;;;;;;4.00;2.90;;;;;;;15.47;35.30;101673.53;5006379;28;20038;-73
2021/04/15 08:37:21;;;;;;;3.70;2.78;;;;;;;15.09;35.42;101669.41;4996568;28;20060;-74
2021/04/15 08:39:55;;;;;;;3.97;2.97;;;;;;;15.77;35.11;101673.25;5000739;28;20034;-74
2021/04/15 08:42:48;;;;;;;3.35;2.30;;;;;;;15.44;35.40;101678.34;5009822;28;20065;-74
2021/04/15 08:45:48;;;;;;;3.55;2.42;;;;;;;15.74;33.01;101677.06;5010033;28;20128;-74
2021/04/15 08:48:21;;;;;;;3.97;2.60;;;;;;;16.20;33.04;101669.63;5006000;28;20030;-74
2021/04/15 08:51:08;;;;;;;5.18;2.40;;;;;;;17.32;31.70;101672.88;5003600;28;20030;-75
2021/04/15 08:54:08;;;;;;;3.85;2.13;;;;;;;17.67;28.90;101668.16;5009677;28;20026;-74
2021/04/15 08:56:42;;;;;;;4.35;2.20;;;;;;;17.22;30.31;101667.69;5009101;28;20437;-74
2021/04/15 08:59:26;;;;;;;3.58;2.15;;;;;;;17.74;27.66;101663.78;5010302;28;20034;-74
2021/04/15 09:02:00;;;;;;;2.05;1.30;;;;;;;17.40;27.93;101663.00;5003464;28;20510;-74
2021/04/15 09:05:14;;;;;;;2.40;1.98;;;;;;;17.04;28.45;101661.66;5008846;28;20060;-74
2021/04/15 09:08:01;;;;;;;3.13;1.70;;;;;;;17.47;27.10;101663.19;4965534;28;20131;-74
2021/04/15 09:10:40;;;;;;;3.08;2.00;;;;;;;16.27;27.66;101656.47;5008339;28;20045;-74
2021/04/15 09:13:18;;;;;;;3.50;2.25;;;;;;;16.24;29.49;101665.66;5001695;28;20463;-75
2021/04/15 09:16:07;;;;;;;3.20;1.50;;;;;;;16.46;26.33;101655.38;5003358;28;20044;-73
2021/04/15 09:19:06;;;;;;;2.83;1.70;;;;;;;15.55;28.65;101663.94;5009575;28;20034;-74
2021/04/15 09:21:50;;;;;;;3.33;1.90;;;;;;;14.84;30.13;101668.34;5008848;28;20119;-73
2021/04/15 09:24:31;;;;;;;2.75;1.80;;;;;;;14.38;29.97;101664.84;5004875;28;20391;-73
2021/04/15 09:27:23;;;;;;;3.15;1.70;;;;;;;14.03;31.16;101661.06;5008322;28;20041;-74
2021/04/15 09:30:29;;;;;;;3.47;1.70;;;;;;;14.70;29.06;101658.22;4992243;28;20398;-74
2021/04/15 09:32:57;;;;;;;3.58;2.00;;;;;;;14.86;29.12;101658.38;5006035;28;20261;-74
2021/04/15 09:35:51;;;;;;;2.53;1.30;;;;;;;14.53;30.57;101655.34;5009397;28;20030;-74
2021/04/15 09:38:19;;;;;;;1.85;1.30;;;;;;;13.38;30.46;101653.03;5007924;28;20040;-74
2021/04/15 09:40:52;;;;;;;2.95;1.50;;;;;;;13.46;29.75;101657.63;5003263;28;20033;-73
2021/04/15 09:43:49;;;;;;;2.58;1.48;;;;;;;13.35;30.07;101648.84;5009691;28;20124;-73
2021/04/15 09:46:28;;;;;;;2.03;1.23;;;;;;;13.37;30.20;101646.00;5003171;28;20038;-73
2021/04/15 09:49:20;;;;;;;3.47;1.63;;;;;;;13.36;29.49;101642.53;5005244;28;20070;-73
2021/04/15 09:52:17;;;;;;;1.83;1.45;;;;;;;13.27;28.88;101632.75;5002949;28;20056;-74
2021/04/15 09:55:03;;;;;;;2.15;1.35;;;;;;;13.49;28.24;101631.63;4999168;28;20038;-74
2021/04/15 09:57:54;;;;;;;2.00;1.30;;;;;;;13.42;28.31;101632.31;5006612;28;20034;-73
2021/04/15 10:00:32;;;;;;;1.92;1.30;;;;;;;13.20;28.41;101636.94;5001965;28;20065;-74
2021/04/15 10:03:48;;;;;;;2.42;1.42;;;;;;;13.31;28.49;101639.47;5008808;28;20515;-75
2021/04/15 10:06:17;;;;;;;4.07;1.70;;;;;;;13.31;29.31;101625.34;4965289;28;20478;-73
2021/04/15 10:08:54;;;;;;;3.53;2.30;;;;;;;12.90;30.07;101629.97;5009255;28;20041;-73
2021/04/15 10:11:38;;;;;;;2.90;1.77;;;;;;;13.04;30.05;101628.69;4991892;28;20041;-73
2021/04/15 10:14:46;;;;;;;2.95;1.90;;;;;;;13.17;30.41;101631.91;4990223;28;20089;-73
2021/04/15 10:17:49;;;;;;;4.07;2.00;;;;;;;12.56;30.74;101624.22;5005028;28;20456;-76
2021/04/15 10:20:33;;;;;;;4.40;2.03;;;;;;;12.14;31.01;101624.41;5007911;28;20038;-75
2021/04/15 10:23:30;;;;;;;3.80;2.50;;;;;;;11.55;30.29;101629.41;4999905;28;20081;-73
2021/04/15 10:26:19;;;;;;;2.97;1.85;;;;;;;11.35;31.88;101611.75;5003480;28;20042;-74
2021/04/15 10:29:31;;;;;;;2.70;2.00;;;;;;;11.74;32.69;101614.59;5006555;28;20061;-74
2021/04/15 10:32:35;;;;;;;3.45;1.90;;;;;;;11.83;31.49;101608.50;5002806;28;20395;-74
2021/04/15 10:35:28;;;;;;;3.70;1.95;;;;;;;11.81;30.69;101618.41;5009379;28;20124;-75
2021/04/15 10:38:02;;;;;;;3.30;1.38;;;;;;;11.61;29.46;101610.38;5006729;28;20046;-75
2021/04/15 10:40:49;;;;;;;3.55;1.60;;;;;;;11.29;30.45;101605.16;5009296;28;20049;-75
2021/04/15 10:43:53;;;;;;;3.33;2.50;;;;;;;11.33;31.88;101603.09;5007030;28;20034;-72
2021/04/15 10:46:24;;;;;;;3.15;1.90;;;;;;;11.20;32.29;101595.34;4986341;28;20084;-73
2021/04/15 10:48:55;;;;;;;4.07;2.60;;;;;;;11.29;31.13;101596.38;5010842;28;20518;-74
2021/04/15 10:51:53;;;;;;;4.95;2.50;;;;;;;11.20;33.52;101590.91;5007094;28;20049;-75
2021/04/15 10:54:34;;;;;;;3.17;2.00;;;;;;;11.32;31.85;101596.97;4995508;28;20038;-72
2021/04/15 10:57:13;;;;;;;2.33;1.90;;;;;;;11.37;32.05;101593.91;5008635;28;20514;-74
2021/04/15 10:59:42;;;;;;;3.28;2.20;;;;;;;11.72;33.81;101596.19;4989575;28;20042;-76
2021/04/15 11:02:21;;;;;;;3.40;2.38;;;;;;;11.93;31.69;101582.91;5009971;28;20034;-73
2021/04/15 11:04:47;;;;;;;3.67;2.95;;;;;;;11.92;31.55;101601.56;5009208;28;20037;-73
2021/04/15 11:07:18;;;;;;;3.83;3.10;;;;;;;11.62;32.66;101588.19;5012013;28;20030;-74
2021/04/15 11:09:46;;;;;;;5.18;3.50;;;;;;;11.30;33.38;101595.38;5008826;28;20064;-75
2021/04/15 11:12:15;;;;;;;5.35;3.33;;;;;;;11.18;33.81;101592.00;5010243;28;20030;-75
2021/04/15 11:14:43;;;;;;;4.70;3.25;;;;;;;10.99;36.55;101587.41;5008869;28;20050;-73
2021/04/15 11:17:23;;;;;;;6.72;2.83;;;;;;;10.72;37.29;101594.00;5011635;28;20129;-71
2021/04/15 11:19:58;;;;;;;5.70;2.70;;;;;;;10.80;37.09;101594.22;5003485;28;20053;-72
2021/04/15 11:22:32;;;;;;;5.15;3.22;;;;;;;11.25;36.35;101609.06;5011133;28;20041;-71
2021/04/15 11:25:12;;;;;;;5.60;3.00;;;;;;;10.80;38.41;101596.88;5011390;28;20034;-70
2021/04/15 11:27:38;;;;;;;5.18;3.20;;;;;;;10.86;37.96;101600.81;5011085;28;20101;-70
2021/04/15 11:30:05;;;;;;;3.90;3.00;;;;;;;10.37;39.89;101592.47;5011572;28;20038;-74
2021/04/15 11:32:38;;;;;;;4.20;3.00;;;;;;;10.26;39.95;101597.72;5007227;28;20061;-76
2021/04/15 11:35:21;;;;;;;4.78;3.25;;;;;;;10.06;39.59;101603.75;5011847;28;20038;-72
2021/04/15 11:37:51;;;;;;;7.18;3.53;;;;;;;9.62;39.83;101603.66;4993782;28;20037;-72
2021/04/15 11:40:38;;;;;;;9.63;3.20;;;;;;;9.47;41.44;101604.84;4989159;28;20121;-71
2021/04/15 11:43:25;;;;;;;4.53;2.95;;;;;;;9.59;41.38;101611.00;5012008;28;20065;-73
2021/04/15 11:45:52;;;;;;;4.70;2.80;;;;;;;9.70;39.44;101610.97;4988308;28;20038;-71
2021/04/15 11:48:28;;;;;;;4.13;2.60;;;;;;;9.70;40.91;101606.56;5007964;28;20034;-71
2021/04/15 11:51:22;;;;;;;3.00;2.10;;;;;;;9.97;39.00;101600.06;5009399;28;20053;-72
2021/04/15 11:53:54;;;;;;;3.17;1.98;;;;;;;10.08;38.76;101601.84;5009451;28;20030;-71
2021/04/15 11:56:33;;;;;;;;;;;;;;;10.47;38.71;101600.47;5010878;28;20295;-71
2021/04/15 11:59:19;;;;;;;3.38;2.20;;;;;;;10.79;38.44;101600.47;5010139;28;19924;-72
2021/04/15 12:01:45;;;;;;;5.03;2.70;;;;;;;10.75;37.91;101600.84;5012411;28;20052;-71
2021/04/15 12:04:22;;;;;;;3.47;2.10;;;;;;;10.87;38.21;101604.28;5013495;28;20045;-71
2021/04/15 12:06:54;;;;;;;4.28;2.33;;;;;;;10.74;37.14;101594.72;4989148;28;20034;-71
2021/04/15 12:09:25;;;;;;;3.30;1.60;;;;;;;10.40;37.94;101594.84;5011153;28;20050;-71
2021/04/15 12:12:01;;;;;;;3.30;1.90;;;;;;;10.49;36.16;101590.63;5011265;28;20051;-72
2021/04/15 12:14:27;;;;;;;4.95;2.33;;;;;;;10.54;35.93;101588.44;5010512;28;20033;-71
2021/04/15 12:17:00;;;;;;;3.67;2.50;;;;;;;10.59;35.24;101585.41;5010568;28;20092;-71
2021/04/15 12:19:37;;;;;;;3.40;2.00;;;;;;;10.74;35.70;101591.25;5009994;28;20573;-72
2021/04/15 12:22:14;;;;;;;5.07;2.58;;;;;;;10.50;34.59;101584.34;4992325;28;20041;-73